Time;durP1;ratioP1;P1;durP2;ratioP2;P2;SDS_P1;SDS_P2;PMS_P1;PMS_P2;Temp;Humidity;BMP_temperature;BMP_pressure;BME280_temperature;BME280_humidity;BME280_pressure;Samples;Min_cycle;Max_cycle;Signal;HPM_P1;HPM_P2
2022/04/11 00:01:40;;;;;;;;;;;;;;;0.91;100.00;101250.78;5054136;28;19925;-79
2022/04/11 00:04:08;;;;;;;1376.68;999.90;;;;;;;0.90;100.00;101248.28;5045555;28;19925;-78
2022/04/11 00:06:41;;;;;;;;;;;;;;;0.96;100.00;101252.84;5059537;28;20367;-79
2022/04/11 00:09:14;;;;;;;;;;;;;;;0.89;100.00;101252.00;5045058;28;19921;-79
2022/04/11 00:11:48;;;;;;;;;;;;;;;0.88;100.00;101258.38;5052665;28;19921;-78
2022/04/11 00:14:21;;;;;;;;;;;;;;;0.88;100.00;101250.34;5054607;28;20091;-78
2022/04/11 00:16:54;;;;;;;;;;;;;;;0.83;100.00;101256.31;5048819;28;19921;-79
2022/04/11 00:19:27;;;;;;;;;;;;;;;0.79;100.00;101252.38;5046354;28;19921;-79
2022/04/11 00:22:00;;;;;;;;;;;;;;;0.75;100.00;101259.16;5048227;28;19932;-79
2022/04/11 00:24:33;;;;;;;;;;;;;;;0.74;100.00;101254.84;5043030;28;19920;-79
2022/04/11 00:27:02;;;;;;;;;;;;;;;0.68;100.00;101259.97;5055184;28;19920;-79
2022/04/11 00:29:35;;;;;;;;;;;;;;;0.65;100.00;101255.00;5046006;28;19928;-79
2022/04/11 00:32:08;;;;;;;;;;;;;;;0.63;100.00;101250.88;5048783;28;19925;-79
2022/04/11 00:34:41;;;;;;;;;;;;;;;0.60;100.00;101262.00;5046296;28;19936;-79
2022/04/11 00:37:14;;;;;;;;;;;;;;;0.64;100.00;101258.69;5056285;28;19920;-79
2022/04/11 00:39:42;;;;;;;;;;;;;;;0.64;100.00;101257.88;5045358;28;20415;-79
2022/04/11 00:42:13;;;;;;;;;;;;;;;0.61;100.00;101258.28;5052454;28;20388;-79
2022/04/11 00:44:41;;;;;;;;;;;;;;;0.60;100.00;101248.59;5076174;28;20282;-78
2022/04/11 00:47:09;;;;;;;;;;;;;;;0.56;100.00;101245.47;5045161;28;19921;-81
2022/04/11 00:49:37;;;;;;;;;;;;;;;0.57;100.00;101251.69;5050824;28;19928;-81
2022/04/11 00:52:06;;;;;;;;;;;;;;;0.63;100.00;101256.22;5049920;28;19921;-80
2022/04/11 00:54:39;;;;;;;;;;;;;;;0.62;100.00;101254.56;5040634;28;19921;-80
2022/04/11 00:57:15;;;;;;;;;;;;;;;0.53;100.00;101256.59;5051067;28;19932;-79
2022/04/11 00:59:47;;;;;;;;;;;;;;;0.59;100.00;101254.97;5085487;28;19920;-80
2022/04/11 01:02:20;;;;;;;;;;;;;;;0.56;100.00;101255.38;5050848;28;19921;-80
2022/04/11 01:04:48;;;;;;;;;;;;;;;0.52;100.00;101257.63;5078950;28;19924;-80
2022/04/11 01:07:19;;;;;;;;;;;;;;;0.52;100.00;101256.81;5050842;28;20321;-81
2022/04/11 01:09:52;;;;;;;;;;;;;;;0.53;100.00;101264.63;5053072;28;20262;-80
2022/04/11 01:12:22;;;;;;;;;;;;;;;0.55;100.00;101251.84;5050544;28;20332;-80
2022/04/11 01:14:56;;;;;;;;;;;;;;;0.60;100.00;101259.31;5050595;28;19930;-81
2022/04/11 01:17:31;;;;;;;;;;;;;;;0.55;100.00;101265.25;5039078;28;19921;-79
2022/04/11 01:20:09;;;;;;;;;;;;;;;0.43;100.00;101269.50;5074744;28;19921;-80
2022/04/11 01:22:44;;;;;;;;;;;;;;;0.46;100.00;101261.91;5045205;28;19925;-80
2022/04/11 01:25:18;;;;;;;;;;;;;;;0.44;100.00;101263.13;5044357;28;19921;-80
2022/04/11 01:27:52;;;;;;;;;;;;;;;0.41;100.00;101255.50;5048342;28;20186;-81
2022/04/11 01:30:19;;;;;;;;;;;;;;;0.38;100.00;101259.41;5040066;28;19921;-80
2022/04/11 01:32:52;;;;;;;;;;;;;;;0.38;100.00;101259.41;5051812;28;19931;-80
2022/04/11 01:35:26;;;;;;;;;;;;;;;0.46;100.00;101261.09;5040901;28;19921;-80
2022/04/11 01:38:02;;;;;;;;;;;;;;;0.38;100.00;101254.03;5051779;28;19928;-80
2022/04/11 01:40:36;;;;;;;;;;;;;;;0.37;100.00;101263.09;5062200;28;20304;-79
2022/04/11 01:43:04;;;;;;;;;;;;;;;0.39;100.00;101262.91;5057921;28;19931;-80
2022/04/11 01:45:37;;;;;;;;;;;;;;;0.32;100.00;101260.19;5043858;28;19932;-80
2022/04/11 01:48:05;;;;;;;;;;;;;;;0.27;100.00;101266.13;5075923;28;19921;-81
2022/04/11 01:50:33;;;;;;;;;;;;;;;0.25;100.00;101262.00;5038263;28;19925;-80
2022/04/11 01:53:05;;;;;;;;;;;;;;;0.36;100.00;101261.47;5047465;28;19931;-80
2022/04/11 01:55:40;;;;;;;;;;;;;;;0.26;100.00;101267.19;5058208;28;20352;-81
2022/04/11 01:58:14;;;;;;;;;;;;;;;0.33;100.00;101269.88;5050373;28;19929;-80
2022/04/11 02:00:47;;;;;;;;;;;;;;;0.34;100.00;101271.53;5051266;28;19932;-80
2022/04/11 02:03:20;;;;;;;;;;;;;;;0.37;100.00;101273.81;5042307;28;19928;-79
2022/04/11 02:05:48;;;;;;;;;;;;;;;0.33;100.00;101265.34;5047467;28;19928;-79
2022/04/11 02:08:18;;;;;;;;;;;;;;;0.32;100.00;101270.91;5053641;28;19927;-79
2022/04/11 02:10:54;;;;;;;;;;;;;;;0.40;100.00;101273.44;5036610;28;20255;-79
2022/04/11 02:13:28;;;;;;;;;;;;;;;0.48;100.00;101272.44;5053290;28;20265;-79
2022/04/11 02:16:01;;;;;;;;;;;;;;;0.42;100.00;101274.03;5059009;28;20269;-79
2022/04/11 02:18:34;;;;;;;;;;;;;;;0.34;100.00;101271.53;5049027;28;19924;-79
2022/04/11 02:21:02;;;;;;;;;;;;;;;0.41;100.00;101269.72;5045123;28;19949;-78
2022/04/11 02:23:36;;;;;;;;;;;;;;;0.39;100.00;101277.13;5043764;28;19927;-79
2022/04/11 02:26:09;;;;;;;;;;;;;;;0.29;100.00;101276.63;5048744;28;19924;-79
2022/04/11 02:28:42;;;;;;;;;;;;;;;0.36;100.00;101274.00;5043611;28;19924;-79
2022/04/11 02:31:15;;;;;;;;;;;;;;;0.22;100.00;101284.66;5079308;28;19928;-79
2022/04/11 02:33:48;;;;;;;;;;;;;;;0.26;100.00;101283.25;5049096;28;19927;-79
2022/04/11 02:36:21;;;;;;;;;;;;;;;0.17;100.00;101282.53;5041373;28;19920;-78
2022/04/11 02:38:56;;;;;;;;;;;;;;;0.22;100.00;101273.94;5044009;28;19921;-79
2022/04/11 02:41:24;;;;;;;;;;;;;;;0.18;100.00;101275.38;5053350;28;20294;-79
2022/04/11 02:43:57;;;;;;;;;;;;;;;0.16;100.00;101275.53;5075612;28;19928;-79
2022/04/11 02:46:31;;;;;;;;;;;;;;;0.13;100.00;101277.78;5045052;28;19924;-79
2022/04/11 02:48:59;;;;;;;;;;;;;;;0.22;100.00;101279.31;5054849;28;19924;-79
2022/04/11 02:51:32;;;;;;;;;;;;;;;0.22;100.00;101273.94;5041094;28;19931;-79
2022/04/11 02:54:10;;;;;;;;;;;;;;;0.22;100.00;101276.63;5049029;28;19924;-79
2022/04/11 02:56:46;;;;;;;;;;;;;;;0.11;100.00;101277.16;5061268;28;20274;-78
2022/04/11 02:59:19;;;;;;;;;;;;;;;0.15;100.00;101273.91;5055024;28;19931;-79
2022/04/11 03:01:56;;;;;;;;;;;;;;;0.14;100.00;101274.09;5041891;28;19921;-79
2022/04/11 03:04:24;;;;;;;;;;;;;;;0.22;100.00;101281.97;5062719;28;19929;-79
2022/04/11 03:07:07;;;;;;;;;;;;;;;0.14;100.00;101271.44;5067727;28;19921;-79
2022/04/11 03:09:42;;;;;;;;;;;;;;;0.15;100.00;101271.22;5058283;28;19925;-79
2022/04/11 03:12:15;;;;;;;;;;;;;;;0.13;100.00;101270.56;5049492;28;19925;-79
2022/04/11 03:14:43;;;;;;;;;;;;;;;0.17;100.00;101271.84;5054379;28;19920;-79
2022/04/11 03:17:17;;;;;;;;;;;;;;;0.16;100.00;101274.72;5049011;28;19928;-79
2022/04/11 03:19:50;;;;;;;;;;;;;;;0.12;100.00;101274.28;5052531;28;20795;-80
2022/04/11 03:22:19;;;;;;;;;;;;;;;0.09;100.00;101276.53;5053760;28;19928;-79
2022/04/11 03:24:59;;;;;;;;;;;;;;;-0.04;100.00;101272.72;5041749;28;19925;-79
2022/04/11 03:27:28;;;;;;;;;;;;;;;-0.07;100.00;101265.09;5048257;28;19925;-79
2022/04/11 03:30:02;;;;;;;;;;;;;;;-0.10;100.00;101273.50;5052366;28;19932;-79
2022/04/11 03:32:37;;;;;;;;;;;;;;;-0.05;100.00;101272.94;5044554;28;19925;-79
2022/04/11 03:35:13;;;;;;;;;;;;;;;-0.02;100.00;101277.88;5050993;28;19932;-79
2022/04/11 03:37:41;;;;;;;;;;;;;;;-0.03;100.00;101265.53;5040145;28;19928;-79
2022/04/11 03:40:21;;;;;;;;;;;;;;;-0.11;100.00;101269.19;5050251;28;19921;-79
2022/04/11 03:42:57;;;;;;;;;;;;;;;-0.11;100.00;101271.88;5046453;28;19947;-78
2022/04/11 03:45:26;;;;;;;;;;;;;;;-0.05;100.00;101271.06;5046640;28;19947;-79
2022/04/11 03:47:59;;;;;;;;;;;;;;;-0.15;100.00;101273.28;5050069;28;20269;-79
2022/04/11 03:50:37;;;;;;;;;;;;;;;-0.15;100.00;101273.28;5052272;28;19939;-79
2022/04/11 03:53:10;;;;;;;;;;;;;;;-0.19;100.00;101280.03;5052535;28;19924;-79
2022/04/11 03:55:45;;;;;;;;;;;;;;;-0.16;100.00;101279.63;5054619;28;19921;-80
2022/04/11 03:58:13;;;;;;;;;;;;;;;-0.25;100.00;101286.13;5046922;28;19940;-79
2022/04/11 04:00:43;;;;;;;;;;;;;;;-0.24;100.00;101282.44;5056024;28;19927;-80
2022/04/11 04:03:25;;;;;;;;;;;;;;;-0.15;100.00;101292.00;5048483;28;19932;-79
2022/04/11 04:05:58;;;;;;;;;;;;;;;-0.11;100.00;101287.06;5046914;28;19925;-79
2022/04/11 04:08:31;;;;;;;;;;;;;;;-0.09;100.00;101296.56;5083397;28;19920;-78
2022/04/11 04:11:13;;;;;;;;;;;;;;;-0.10;100.00;101300.25;5045362;28;19925;-79
2022/04/11 04:14:11;;;;;;;;;;;;;;;-0.02;100.00;101300.13;5044208;28;19921;-79
2022/04/11 04:16:49;;;;;;;;;;;;;;;-0.03;100.00;101302.97;5054722;28;19925;-79
2022/04/11 04:19:31;;;;;;;;;;;;;;;0.06;100.00;101299.16;5083482;28;19925;-80
2022/04/11 04:22:10;;;;;;;;;;;;;;;-0.01;100.00;101298.28;5083028;28;19944;-79
2022/04/11 04:24:44;;;;;;;;;;;;;;;0.06;100.00;101298.34;5048046;28;19920;-79
2022/04/11 04:27:18;;;;;;;;;;;;;;;-0.07;100.00;101294.53;5087477;28;20277;-79
2022/04/11 04:29:51;;;;;;;;;;;;;;;-0.04;100.00;101294.13;5053537;28;19920;-79
2022/04/11 04:32:26;;;;;;;;;;;;;;;-0.09;100.00;101293.06;5083412;28;20304;-78
2022/04/11 04:34:59;;;;;;;;;;;;;;;-0.16;100.00;101300.22;5049846;28;20304;-78
2022/04/11 04:37:32;;;;;;;;;;;;;;;-0.25;100.00;101299.50;5049163;28;19920;-78
2022/04/11 04:40:06;;;;;;;;;;;;;;;-0.21;100.00;101295.44;5050277;28;20365;-78
2022/04/11 04:42:46;;;;;;;;;;;;;;;-0.21;100.00;101300.78;5052750;28;19949;-79
2022/04/11 04:45:20;;;;;;;;;;;;;;;-0.16;100.00;101297.53;5058569;28;19925;-78
2022/04/11 04:48:10;;;;;;;;;;;;;;;-0.26;100.00;101298.69;5047734;28;19925;-79
2022/04/11 04:50:44;;;;;;;;;;;;;;;-0.22;100.00;101299.97;5047194;28;19932;-80
2022/04/11 04:53:15;;;;;;;;;;;;;;;-0.20;100.00;101297.91;5042910;28;19935;-79
2022/04/11 04:55:51;;;;;;;;;;;;;;;-0.07;100.00;101293.69;5050027;28;19932;-79
2022/04/11 04:58:25;;;;;;;;;;;;;;;-0.02;100.00;101302.78;5068966;28;20382;-78
2022/04/11 05:00:59;;;;;;;;;;;;;;;0.06;100.00;101303.69;5045190;28;20411;-78
2022/04/11 05:03:33;;;;;;;;;;;;;;;0.09;100.00;101301.44;5048902;28;19928;-79
2022/04/11 05:06:01;;;;;;;;;;;;;;;0.23;100.00;101305.03;5046088;28;20408;-78
2022/04/11 05:08:31;;;;;;;;;;;;;;;0.38;100.00;101307.59;5047294;28;19924;-79
2022/04/11 05:11:04;;;;;;;;;;;;;;;0.73;100.00;101309.44;5077664;28;19924;-78
2022/04/11 05:13:40;;;;;;;;;;;;;;;0.82;100.00;101314.44;5048695;28;19928;-80
2022/04/11 05:16:08;;;;;;;;;;;;;;;0.62;100.00;101317.03;5053349;28;19924;-79
2022/04/11 05:18:41;;;;;;;;;;;;;;;0.50;100.00;101311.38;5045074;28;20412;-79
2022/04/11 05:21:14;;;;;;;;;;;;;;;0.72;100.00;101313.97;5080084;28;19947;-79
2022/04/11 05:23:47;;;;;;;;;;;;;;;0.71;100.00;101315.00;5046807;28;19921;-79
2022/04/11 05:26:20;;;;;;;;;;;;;;;0.72;100.00;101316.66;5048995;28;20296;-79
2022/04/11 05:28:54;;;;;;;;;;;;;;;0.77;100.00;101319.53;5051776;28;19928;-79
2022/04/11 05:31:27;;;;;;;;;;;;;;;0.83;100.00;101316.09;5051186;28;19921;-79
2022/04/11 05:34:01;;;;;;;;;;;;;;;0.89;100.00;101321.69;5043142;28;19928;-79
2022/04/11 05:36:34;;;;;;;;;;;;;;;0.97;100.00;101321.50;5044809;28;19925;-80
2022/04/11 05:39:08;;;;;;;;;;;;;;;1.02;100.00;101321.72;5077516;28;19925;-79
2022/04/11 05:41:41;;;;;;;;;;;;;;;1.10;100.00;101326.09;5048352;28;19931;-79
2022/04/11 05:44:10;;;;;;;;;;;;;;;1.16;100.00;101328.78;5051014;28;19928;-80
2022/04/11 05:46:46;;;;;;;;;;;;;;;1.27;100.00;101324.69;5047572;28;19925;-79
2022/04/11 05:49:26;;;;;;;;;;;;;;;1.40;100.00;101317.72;5044188;28;20522;-79
2022/04/11 05:52:00;;;;;;;;;;;;;;;1.39;100.00;101330.28;5056097;28;19943;-79
2022/04/11 05:54:28;;;;;;;;;;;;;;;1.49;100.00;101327.22;5040270;28;19928;-79
2022/04/11 05:57:01;;;;;;;;;;;;;;;1.59;100.00;101327.66;5052909;28;19929;-79
2022/04/11 05:59:31;;;;;;;;;;;;;;;1.61;100.00;101330.13;5051475;28;19928;-79
2022/04/11 06:02:05;;;;;;;;;;;;;;;1.69;100.00;101328.06;5054139;28;19924;-79
2022/04/11 06:04:39;;;;;;;;;;;;;;;1.71;100.00;101333.22;5039261;28;19921;-79
2022/04/11 06:07:12;;;;;;;;;;;;;;;1.72;100.00;101328.72;5042830;28;19921;-78
2022/04/11 06:09:45;;;;;;;;;;;;;;;1.87;100.00;101329.34;5047483;28;19924;-79
2022/04/11 06:12:19;;;;;;;;;;;;;;;1.94;100.00;101321.28;5076720;28;20399;-80
2022/04/11 06:14:54;;;;;;;;;;;;;;;2.05;100.00;101336.78;5064322;28;19921;-78
2022/04/11 06:17:27;;;;;;;;;;;;;;;2.03;100.00;101342.34;5076488;28;19940;-79
2022/04/11 06:20:00;;;;;;;;;;;;;;;2.14;100.00;101343.59;5045976;28;19928;-80
2022/04/11 06:22:37;;;;;;;;;;;;;;;2.15;100.00;101347.91;5077586;28;20377;-79
2022/04/11 06:25:08;;;;;;;;;;;;;;;2.24;100.00;101348.53;5050582;28;19928;-78
2022/04/11 06:27:40;;;;;;;;;;;;;;;2.31;100.00;101354.72;5046330;28;20361;-77
2022/04/11 06:30:10;;;;;;;;;;;;;;;2.43;100.00;101354.09;5042879;28;19920;-80
2022/04/11 06:32:42;;;;;;;;;;;;;;;2.44;100.00;101353.88;5037869;28;20297;-79
2022/04/11 06:35:15;;;;;;;;;;;;;;;2.54;100.00;101353.44;5072612;28;21322;-78
2022/04/11 06:37:43;;;;;;;;;;;;;;;2.64;100.00;101361.09;5043642;28;19931;-78
2022/04/11 06:40:17;;;;;;;;;;;;;;;2.83;100.00;101359.38;5053278;28;19932;-77
2022/04/11 06:42:46;;;;;;;;;;;;;;;2.88;100.00;101360.38;5041864;28;19927;-78
2022/04/11 06:45:49;;;;;;;;;;;;;;;2.97;100.00;101369.06;5040469;28;19924;-78
2022/04/11 06:48:20;;;;;;;;;;;;;;;3.13;100.00;101369.63;5048299;28;19921;-77
2022/04/11 06:50:53;;;;;;;;;;;;;;;3.36;100.00;101372.63;5024904;28;19928;-78
2022/04/11 06:53:27;;;;;;;;;;;;;;;3.38;100.00;101375.09;5027637;28;19933;-79
2022/04/11 06:55:59;;;;;;;;;;;;;;;3.33;100.00;101359.59;5025195;28;19929;-79
2022/04/11 06:58:27;;;;;;;;;;;;;;;3.47;100.00;101362.22;5058741;28;20400;-78
2022/04/11 07:00:57;;;;;;;;;;;;;;;3.62;100.00;101368.13;5023402;28;20476;-78
2022/04/11 07:03:30;;;;;;;;;;;;;;;3.50;100.00;101378.75;5024495;28;19928;-79
2022/04/11 07:06:03;;;;;;;;;;;;;;;3.68;100.00;101369.94;5031681;28;19921;-79
2022/04/11 07:08:36;;;;;;;;;;;;;;;3.77;100.00;101372.38;5023279;28;20292;-79
2022/04/11 07:11:04;;;;;;;;;;;;;;;3.88;100.00;101366.28;5043725;28;20277;-78
2022/04/11 07:13:37;;;;;;;;;;;;;;;3.92;100.00;101376.44;5030595;28;19928;-79
2022/04/11 07:16:07;;;;;;;;;;;;;;;4.09;100.00;101368.63;5033031;28;19928;-78
2022/04/11 07:18:40;;;;;;;;;;;;;;;4.16;100.00;101378.53;5030693;28;19924;-79
2022/04/11 07:21:13;;;;;;;;;;;;;;;4.00;100.00;101378.00;5020899;28;19932;-79
2022/04/11 07:23:46;;;;;;;;;;;;;;;4.13;100.00;101379.81;5019209;28;19925;-78
2022/04/11 07:26:19;;;;;;;;;;;;;;;4.13;100.00;101382.50;5021919;28;19925;-78
2022/04/11 07:28:51;;;;;;;;;;;;;;;4.12;100.00;101380.84;5021695;28;19924;-78
2022/04/11 07:31:27;;;;;;;;;;;;;;;4.02;100.00;101388.56;5017148;28;19936;-78
2022/04/11 07:33:54;;;;;;;;;;;;;;;4.07;100.00;101388.75;5020715;28;20289;-78
2022/04/11 07:36:22;;;;;;;;;;;;;;;4.13;100.00;101387.88;5024040;28;19929;-78
2022/04/11 07:38:50;;;;;;;;;;;;;;;4.25;100.00;101385.28;5014706;28;19936;-79
2022/04/11 07:41:23;;;;;;;;;;;;;;;4.39;100.00;101381.44;5016031;28;19935;-79
2022/04/11 07:43:53;;;;;;;;;;;;;;;4.45;100.00;101382.44;5026305;28;20486;-79
2022/04/11 07:46:27;;;;;;;;;;;;;;;4.56;100.00;101383.56;5016708;28;20579;-79
2022/04/11 07:48:55;;;;;;;;;;;;;;;4.65;100.00;101384.91;5019676;28;21905;-78
2022/04/11 07:51:28;;;;;;;;;;;;;;;4.77;100.00;101380.44;5008787;28;19935;-80
2022/04/11 07:53:56;;;;;;;;;;;;;;;4.84;100.00;101374.97;5017981;28;19929;-79
2022/04/11 07:56:29;;;;;;;;;;;;;;;4.79;100.00;101376.69;5020848;28;19928;-78
2022/04/11 07:59:02;;;;;;;;;;;;;;;5.03;100.00;101381.19;5018680;28;19929;-79
2022/04/11 08:01:31;;;;;;;;;;;;;;;4.86;100.00;101375.59;5018784;28;19929;-78
2022/04/11 08:04:05;;;;;;;;;;;;;;;4.97;100.00;101376.69;5024166;28;19936;-79
2022/04/11 08:06:33;;;;;;;;;;;;;;;5.01;100.00;101375.19;5030313;28;19940;-78
2022/04/11 08:09:00;;;;;;;;;;;;;;;5.13;100.00;101377.97;5029890;28;19936;-78
2022/04/11 08:11:28;;;;;;;;;;;;;;;5.33;100.00;101371.50;5029407;28;19929;-78
2022/04/11 08:14:01;;;;;;;;;;;;;;;5.22;100.00;101371.22;5023349;28;19928;-80
2022/04/11 08:16:35;;;;;;;;;;;;;;;5.28;100.00;101375.69;5034095;28;19929;-79
2022/04/11 08:19:04;;;;;;;;;;;;;;;5.46;100.00;101379.44;5041093;28;19928;-79
2022/04/11 08:21:32;;;;;;;;;;;;;;;5.64;100.00;101372.34;5023310;28;21163;-79
2022/04/11 08:23:59;;;;;;;;;;;;;;;5.71;100.00;101381.97;5023029;28;20563;-80
2022/04/11 08:26:27;;;;;;;;;;;;;;;5.72;100.00;101385.53;5023509;28;21161;-80
2022/04/11 08:29:00;;;;;;;;;;;;;;;5.64;100.00;101383.97;5023353;28;20421;-79
2022/04/11 08:31:33;;;;;;;;;;;;;;;5.90;100.00;101380.03;5025941;28;19928;-80
2022/04/11 08:34:07;;;;;;;;;;;;;;;6.14;100.00;101369.31;5026683;28;19928;-80
2022/04/11 08:36:40;;;;;;;;;;;;;;;6.31;100.00;101364.03;5023780;28;20847;-79
2022/04/11 08:39:13;;;;;;;;;;;;;;;6.54;100.00;101365.91;5054009;28;20463;-79
2022/04/11 08:41:41;;;;;;;;;;;;;;;6.67;100.00;101364.03;5033395;28;19928;-79
2022/04/11 08:44:14;;;;;;;;;;;;;;;6.59;100.00;101367.94;5024889;28;19947;-80
2022/04/11 08:46:48;;;;;;;;;;;;;;;6.87;100.00;101366.34;5024861;28;20857;-80
2022/04/11 08:49:23;;;;;;;;;;;;;;;6.97;100.00;101369.25;5029080;28;19929;-80
2022/04/11 08:51:56;;;;;;;;;;;;;;;6.74;100.00;101368.25;5020866;28;19929;-80
2022/04/11 08:54:24;;;;;;;;;;;;;;;7.13;100.00;101360.41;5021714;28;19929;-80
2022/04/11 08:56:57;;;;;;;;;;;;;;;7.28;100.00;101367.19;5023057;28;20188;-80
2022/04/11 08:59:25;;;;;;;;;;;;;;;7.01;100.00;101359.59;5026956;28;19951;-80
2022/04/11 09:01:57;;;;;;;;;;;;;;;7.31;100.00;101362.09;5029072;28;19929;-79
2022/04/11 09:04:32;;;;;;;;;;;;;;;7.22;100.00;101362.72;5022317;28;20480;-78
2022/04/11 09:07:04;;;;;;;;;;;;;;;7.33;100.00;101356.44;5016465;28;19931;-79
2022/04/11 09:09:38;;;;;;;;;;;;;;;7.52;100.00;101362.50;5016150;28;19928;-79
2022/04/11 09:12:13;;;;;;;;;;;;;;;7.43;100.00;101358.53;5017275;28;19928;-79
2022/04/11 09:14:51;;;;;;;;;;;;;;;7.35;100.00;101358.91;5020714;28;19928;-79
2022/04/11 09:17:24;;;;;;;;;;;;;;;7.23;100.00;101365.19;5018737;28;20289;-79
2022/04/11 09:20:10;;;;;;;;;;;;;;;7.21;100.00;101350.25;5004165;28;19928;-79
2022/04/11 09:22:43;;;;;;;;;;;;;;;7.63;100.00;101339.94;5023960;28;19928;-78
2022/04/11 09:25:12;;;;;;;;;;;;;;;7.94;100.00;101348.63;5042223;28;20015;-79
2022/04/11 09:27:39;;;;;;;;;;;;;;;7.97;100.00;101348.13;5022900;28;19929;-78
2022/04/11 09:30:21;;;;;;;;;;;;;;;8.28;100.00;101353.22;5022841;28;19925;-79
2022/04/11 09:32:53;;;;;;;;;;;;;;;8.60;100.00;101342.56;5028087;28;19928;-79
2022/04/11 09:35:23;;;;;;;;;;;;;;;8.51;100.00;101342.19;5025513;28;19936;-79
2022/04/11 09:38:06;;;;;;;;;;;;;;;8.07;100.00;101342.03;5020087;28;19929;-79
2022/04/11 09:40:44;;;;;;;16.52;15.52;;;;;;;7.81;100.00;101335.38;5022446;28;19943;-79
2022/04/11 09:43:24;;;;;;;6.15;5.75;;;;;;;7.89;100.00;101336.88;5024485;28;20068;-79
2022/04/11 09:45:59;;;;;;;4.15;3.85;;;;;;;7.87;100.00;101345.25;5021030;28;20049;-79
2022/04/11 09:48:35;;;;;;;3.03;2.83;;;;;;;7.93;100.00;101346.97;5016990;28;20049;-78
2022/04/11 09:51:10;;;;;;;1.92;1.83;;;;;;;7.69;100.00;101348.97;5018319;28;20398;-79
2022/04/11 09:53:39;;;;;;;1.58;1.48;;;;;;;7.78;100.00;101352.13;5024426;28;20061;-79
2022/04/11 09:56:13;;;;;;;1.42;1.33;;;;;;;7.81;100.00;101344.31;5021698;28;20048;-79
2022/04/11 09:58:48;;;;;;;1.17;1.17;;;;;;;7.93;100.00;101335.31;5024158;28;20067;-79
2022/04/11 10:01:23;;;;;;;1.10;1.10;;;;;;;7.71;100.00;101335.22;5023753;28;20045;-79
2022/04/11 10:03:57;;;;;;;0.90;0.90;;;;;;;7.54;100.00;101337.88;5033088;28;20453;-79
2022/04/11 10:06:32;;;;;;;1.02;1.02;;;;;;;7.55;100.00;101332.22;5016880;28;20049;-80
2022/04/11 10:09:05;;;;;;;1.08;1.02;;;;;;;7.41;100.00;101325.47;5024584;28;20053;-79
2022/04/11 10:11:35;;;;;;;0.90;0.90;;;;;;;7.68;100.00;101324.84;5036090;28;20053;-78
2022/04/11 10:14:10;;;;;;;0.60;0.60;;;;;;;7.73;100.00;101324.94;5018897;28;20052;-79
2022/04/11 10:16:42;;;;;;;0.80;0.80;;;;;;;8.15;100.00;101325.34;5015157;28;20067;-79
2022/04/11 10:19:15;;;;;;;0.77;0.77;;;;;;;8.16;100.00;101323.47;5013511;28;20057;-79
2022/04/11 10:21:51;;;;;;;0.65;0.65;;;;;;;8.28;100.00;101310.63;5034231;28;20060;-78
2022/04/11 10:24:32;;;;;;;0.65;0.65;;;;;;;8.36;100.00;101303.16;5024886;28;20033;-79
2022/04/11 10:27:18;;;;;;;0.80;0.80;;;;;;;8.55;100.00;101315.38;5027340;28;20080;-79
2022/04/11 10:29:53;;;;;;;0.60;0.60;;;;;;;8.85;100.00;101316.84;5023255;28;20053;-79
2022/04/11 10:32:28;;;;;;;0.60;0.60;;;;;;;8.67;100.00;101307.97;5020091;28;20048;-79
2022/04/11 10:35:04;;;;;;;0.60;0.60;;;;;;;9.04;100.00;101324.69;5025917;28;20053;-79
2022/04/11 10:38:07;;;;;;;0.73;0.60;;;;;;;9.06;100.00;101317.94;5024403;28;20052;-79
2022/04/11 10:40:49;;;;;;;0.50;0.50;;;;;;;9.26;100.00;101311.88;5025656;28;20048;-80
2022/04/11 10:43:22;;;;;;;0.55;0.55;;;;;;;9.24;100.00;101315.94;5022208;28;20688;-80
2022/04/11 10:45:59;;;;;;;0.50;0.50;;;;;;;9.61;100.00;101317.94;5017364;28;20060;-79
2022/04/11 10:48:58;;;;;;;0.40;0.35;;;;;;;9.28;84.29;101319.78;5017125;28;20055;-79
2022/04/11 10:51:32;;;;;;;0.40;0.40;;;;;;;9.05;100.00;101315.47;5025620;28;20053;-79
2022/04/11 10:54:21;;;;;;;0.73;0.50;;;;;;;8.89;96.87;101317.97;5024491;28;20056;-79
2022/04/11 10:56:55;;;;;;;0.40;0.40;;;;;;;8.93;100.00;101319.13;5025085;28;20587;-80
2022/04/11 10:59:27;;;;;;;0.50;0.50;;;;;;;8.70;100.00;101320.22;5020756;28;20052;-79
2022/04/11 11:02:00;;;;;;;0.50;0.50;;;;;;;8.80;100.00;101325.75;5023567;28;20706;-79
2022/04/11 11:04:32;;;;;;;0.50;0.50;;;;;;;8.54;100.00;101318.34;5023551;28;20606;-79
2022/04/11 11:07:23;;;;;;;0.50;0.50;;;;;;;8.58;100.00;101317.59;5023254;28;20884;-79
2022/04/11 11:09:58;;;;;;;0.50;0.40;;;;;;;8.28;100.00;101317.94;5023854;28;20057;-79
2022/04/11 11:12:27;;;;;;;0.73;0.60;;;;;;;8.42;100.00;101310.28;5038298;28;20056;-80
2022/04/11 11:15:27;;;;;;;0.50;0.50;;;;;;;8.39;100.00;101310.78;5026069;28;20072;-78
2022/04/11 11:18:00;;;;;;;0.82;0.60;;;;;;;8.41;100.00;101314.91;5019030;28;20049;-79
2022/04/11 11:20:50;;;;;;;0.73;0.57;;;;;;;8.53;100.00;101314.81;5022904;28;20053;-79
2022/04/11 11:23:31;;;;;;;0.60;0.60;;;;;;;8.23;100.00;101312.44;5030435;28;20049;-79
2022/04/11 11:26:11;;;;;;;0.52;0.52;;;;;;;8.17;100.00;101304.25;5042554;28;20053;-79
2022/04/11 11:28:44;;;;;;;0.50;0.50;;;;;;;8.05;100.00;101305.41;5017408;28;20056;-79
2022/04/11 11:31:12;;;;;;;0.40;0.40;;;;;;;8.06;100.00;101293.50;5030109;28;21113;-78
2022/04/11 11:33:50;;;;;;;0.47;0.47;;;;;;;7.99;100.00;101302.59;5029651;28;20048;-80
2022/04/11 11:36:28;;;;;;;0.55;0.50;;;;;;;8.10;100.00;101305.47;5031881;28;20257;-79
2022/04/11 11:39:01;;;;;;;0.40;0.40;;;;;;;8.28;100.00;101302.50;5034558;28;20666;-79
2022/04/11 11:41:37;;;;;;;0.52;0.52;;;;;;;8.48;100.00;101290.34;5024068;28;20057;-79
2022/04/11 11:44:07;;;;;;;0.50;0.50;;;;;;;8.54;100.00;101291.22;5027053;28;20059;-79
2022/04/11 11:46:52;;;;;;;0.50;0.50;;;;;;;8.77;100.00;101295.56;5043587;28;20045;-79
2022/04/11 11:49:27;;;;;;;0.50;0.50;;;;;;;9.08;100.00;101283.19;5033931;28;20689;-79
2022/04/11 11:52:00;;;;;;;0.50;0.50;;;;;;;9.33;100.00;101281.81;5030116;28;20052;-79
2022/04/11 11:54:35;;;;;;;0.40;0.40;;;;;;;9.16;97.66;101281.91;5026506;28;20905;-80
2022/04/11 11:57:18;;;;;;;0.40;0.40;;;;;;;9.26;100.00;101283.91;5028015;28;20056;-78
2022/04/11 11:59:53;;;;;;;0.40;0.40;;;;;;;9.31;94.23;101283.97;5024643;28;20056;-78
2022/04/11 12:05:22;;;;;;;0.30;0.30;;;;;;;8.81;100.00;101266.84;5035977;28;20538;-79
2022/04/11 12:08:17;;;;;;;0.40;0.40;;;;;;;9.01;100.00;101280.66;5029883;28;20049;-77
2022/04/11 12:10:54;;;;;;;0.55;0.50;;;;;;;8.84;98.67;101277.22;5028767;28;20053;-78
2022/04/11 12:13:30;;;;;;;0.32;0.32;;;;;;;8.88;100.00;101250.38;5029202;28;20049;-79
2022/04/11 12:16:09;;;;;;;0.40;0.40;;;;;;;8.77;100.00;101269.28;5028673;28;20056;-80
2022/04/11 12:18:53;;;;;;;0.30;0.30;;;;;;;8.60;98.45;101261.19;5032479;28;20060;-80
2022/04/11 12:21:31;;;;;;;0.40;0.40;;;;;;;8.72;100.00;101262.97;5031698;28;20063;-80
2022/04/11 12:23:59;;;;;;;0.40;0.40;;;;;;;8.97;100.00;101268.66;5028822;28;20049;-80
2022/04/11 12:26:35;;;;;;;0.43;0.40;;;;;;;8.97;100.00;101255.09;5029992;28;20049;-80
2022/04/11 12:29:10;;;;;;;0.40;0.40;;;;;;;8.87;100.00;101259.63;5027361;28;20056;-80
2022/04/11 12:31:39;;;;;;;0.40;0.40;;;;;;;9.05;100.00;101259.25;5028741;28;21514;-78
2022/04/11 12:34:15;;;;;;;0.55;0.45;;;;;;;8.99;100.00;101254.84;5029167;28;20045;-79
2022/04/11 12:36:59;;;;;;;0.50;0.50;;;;;;;9.05;100.00;101258.47;5030943;28;21328;-79
2022/04/11 12:39:33;;;;;;;0.40;0.40;;;;;;;8.96;100.00;101258.06;5028194;28;20060;-79
2022/04/11 12:42:02;;;;;;;0.40;0.40;;;;;;;8.84;100.00;101250.91;5028528;28;20049;-79
2022/04/11 12:44:37;;;;;;;0.40;0.40;;;;;;;9.07;100.00;101245.44;5031084;28;21203;-80
2022/04/11 12:47:10;;;;;;;0.52;0.40;;;;;;;9.27;93.87;101237.50;5037587;28;20056;-79
2022/04/11 12:49:45;;;;;;;0.70;0.50;;;;;;;9.10;100.00;101226.75;4996323;27;20060;-80
2022/04/11 12:52:19;;;;;;;0.77;0.40;;;;;;;9.12;91.10;101240.88;5039862;28;20953;-79